Impacts TAF Board
For situational awareness. Not to be used for flight planning purposes.
IDs:

KTPA - Tampa Intl Arpt, FL, US

Issued at 0526 UTC 03 Jul 2022
Updated at 0549 UTC 03 Jul 2022
Potential Impact None Slight Moderate High
Time0453Z 03/06Z 03/07Z 03/08Z 03/09Z 03/10Z 03/11Z 03/12Z 03/13Z 03/14Z 03/15Z 03/16Z 03/17Z 03/18Z>>
Type OBS PRVL PRVL PRVL PRVL PRVL PRVL PRVL PRVL PRVL PRVL PRVL PRVL PRVL
VIS 10 >6 >6 >6 >6 >6 >6 >6 >6 >6 >6 >6 >6 >6
CIG 300 -- -- -- -- -- -- -- -- -- -- 250 250 250
Cover BKN SCT SCT SCT SCT SCT SCT SCT SCT SCT SCT BKN BKN BKN
FltCat VFR VFR VFR VFR VFR VFR VFR VFR VFR VFR VFR VFR VFR VFR
WX -- -- -- -- -- -- -- -- -- -- -- VCTS VCTS VCTS
WDir 40 VRB VRB VRB VRB VRB VRB VRB VRB VRB VRB 240 240 240
WSpd 3 4 4 4 4 4 4 4 4 4 4 7 7 7
WGst -- -- -- -- -- -- -- -- -- -- -- -- -- --
WSHgt -- -- -- -- -- -- -- -- -- -- -- -- -- --
WSDir -- -- -- -- -- -- -- -- -- -- -- -- -- --
WSSpd -- -- -- -- -- -- -- -- -- -- -- -- -- --
Raw TAF
KTPA 030526Z 0306/0412 VRB04KT P6SM FEW030 SCT250
  FM031600 24007KT P6SM VCTS SCT035CB SCT100 BKN250
  FM032000 28007KT P6SM VCTS SCT045CB BKN100
  FM032300 VRB04KT P6SM FEW035 BKN250


Raw METAR
KTPA 030453Z 04003KT 10SM FEW250 BKN300 27/22 A3009 RMK AO2 SLP187 T02720222 403280267
KTPA 030353Z 00000KT 10SM FEW250 BKN300 27/22 A3009 RMK AO2 SLP189 T02720222
KTPA 030253Z 00000KT 10SM SCT250 BKN300 28/22 A3008 RMK AO2 SLP187 T02780217 53007

METAR Board
Radar Display
Forecast Discussion
For situational awareness. Not to be used for flight planning purposes.